sensor_id;sensor_type;location;lat;lon;timestamp;P1;durP1;ratioP1;P2;durP2;ratioP2
41903;SDS011;27586;51.124;4.182;2023-03-19T00:02:15;4.15;;;3.58;;
41903;SDS011;27586;51.124;4.182;2023-03-19T00:04:41;5.25;;;3.60;;
41903;SDS011;27586;51.124;4.182;2023-03-19T00:07:06;4.68;;;3.60;;
41903;SDS011;27586;51.124;4.182;2023-03-19T00:09:32;5.03;;;3.70;;
41903;SDS011;27586;51.124;4.182;2023-03-19T00:11:58;3.83;;;3.42;;
41903;SDS011;27586;51.124;4.182;2023-03-19T00:14:23;4.40;;;3.42;;
41903;SDS011;27586;51.124;4.182;2023-03-19T00:16:49;3.40;;;3.10;;
41903;SDS011;27586;51.124;4.182;2023-03-19T00:19:15;3.30;;;2.92;;
41903;SDS011;27586;51.124;4.182;2023-03-19T00:21:41;4.50;;;3.42;;
41903;SDS011;27586;51.124;4.182;2023-03-19T00:24:07;3.97;;;3.58;;
41903;SDS011;27586;51.124;4.182;2023-03-19T00:26:34;5.30;;;3.75;;
41903;SDS011;27586;51.124;4.182;2023-03-19T00:29:00;3.97;;;3.58;;
41903;SDS011;27586;51.124;4.182;2023-03-19T00:31:27;4.50;;;3.50;;
41903;SDS011;27586;51.124;4.182;2023-03-19T00:33:55;5.32;;;3.60;;
41903;SDS011;27586;51.124;4.182;2023-03-19T00:36:22;4.72;;;3.47;;
41903;SDS011;27586;51.124;4.182;2023-03-19T00:38:49;4.93;;;4.07;;
41903;SDS011;27586;51.124;4.182;2023-03-19T00:41:15;4.85;;;4.32;;
41903;SDS011;27586;51.124;4.182;2023-03-19T00:43:43;5.85;;;3.90;;
41903;SDS011;27586;51.124;4.182;2023-03-19T00:46:08;4.93;;;4.10;;
41903;SDS011;27586;51.124;4.182;2023-03-19T00:48:34;5.15;;;3.95;;
41903;SDS011;27586;51.124;4.182;2023-03-19T00:51:04;4.72;;;4.25;;
41903;SDS011;27586;51.124;4.182;2023-03-19T00:53:32;7.22;;;4.20;;
41903;SDS011;27586;51.124;4.182;2023-03-19T00:56:05;4.80;;;3.95;;
41903;SDS011;27586;51.124;4.182;2023-03-19T00:58:31;4.90;;;4.30;;
41903;SDS011;27586;51.124;4.182;2023-03-19T01:00:58;4.70;;;4.25;;
41903;SDS011;27586;51.124;4.182;2023-03-19T01:03:23;5.32;;;4.20;;
41903;SDS011;27586;51.124;4.182;2023-03-19T01:05:49;5.78;;;4.20;;
41903;SDS011;27586;51.124;4.182;2023-03-19T01:08:15;4.25;;;3.85;;
41903;SDS011;27586;51.124;4.182;2023-03-19T01:10:42;5.47;;;4.63;;
41903;SDS011;27586;51.124;4.182;2023-03-19T01:13:08;6.30;;;4.68;;
41903;SDS011;27586;51.124;4.182;2023-03-19T01:15:37;6.22;;;4.85;;
41903;SDS011;27586;51.124;4.182;2023-03-19T01:18:05;5.32;;;4.80;;
41903;SDS011;27586;51.124;4.182;2023-03-19T01:20:32;5.55;;;4.95;;
41903;SDS011;27586;51.124;4.182;2023-03-19T01:22:58;7.18;;;5.35;;
41903;SDS011;27586;51.124;4.182;2023-03-19T01:25:23;6.20;;;5.57;;
41903;SDS011;27586;51.124;4.182;2023-03-19T01:27:50;8.02;;;5.78;;
41903;SDS011;27586;51.124;4.182;2023-03-19T01:30:16;6.18;;;5.43;;
41903;SDS011;27586;51.124;4.182;2023-03-19T01:32:42;6.78;;;5.80;;
41903;SDS011;27586;51.124;4.182;2023-03-19T01:35:07;6.93;;;5.85;;
41903;SDS011;27586;51.124;4.182;2023-03-19T01:37:34;8.65;;;5.22;;
41903;SDS011;27586;51.124;4.182;2023-03-19T01:40:01;6.93;;;5.65;;
41903;SDS011;27586;51.124;4.182;2023-03-19T01:42:27;5.95;;;5.45;;
41903;SDS011;27586;51.124;4.182;2023-03-19T01:44:53;6.53;;;5.35;;
41903;SDS011;27586;51.124;4.182;2023-03-19T01:49:54;6.53;;;5.53;;
41903;SDS011;27586;51.124;4.182;2023-03-19T01:52:21;6.45;;;5.85;;
41903;SDS011;27586;51.124;4.182;2023-03-19T01:54:49;6.15;;;5.55;;
41903;SDS011;27586;51.124;4.182;2023-03-19T01:57:16;7.43;;;6.20;;
41903;SDS011;27586;51.124;4.182;2023-03-19T01:59:46;6.57;;;5.88;;
41903;SDS011;27586;51.124;4.182;2023-03-19T02:02:16;9.05;;;6.32;;
41903;SDS011;27586;51.124;4.182;2023-03-19T02:04:48;6.47;;;5.90;;
41903;SDS011;27586;51.124;4.182;2023-03-19T02:07:18;6.80;;;6.13;;
41903;SDS011;27586;51.124;4.182;2023-03-19T02:09:44;7.40;;;6.43;;
41903;SDS011;27586;51.124;4.182;2023-03-19T02:12:11;7.25;;;6.55;;
41903;SDS011;27586;51.124;4.182;2023-03-19T02:14:37;6.97;;;6.35;;
41903;SDS011;27586;51.124;4.182;2023-03-19T02:17:04;7.00;;;6.28;;
41903;SDS011;27586;51.124;4.182;2023-03-19T02:21:59;7.25;;;6.55;;
41903;SDS011;27586;51.124;4.182;2023-03-19T02:24:31;8.48;;;6.93;;
41903;SDS011;27586;51.124;4.182;2023-03-19T02:27:00;7.15;;;6.43;;
41903;SDS011;27586;51.124;4.182;2023-03-19T02:29:26;6.53;;;5.85;;
41903;SDS011;27586;51.124;4.182;2023-03-19T02:31:51;8.45;;;6.63;;
41903;SDS011;27586;51.124;4.182;2023-03-19T02:34:31;7.72;;;6.22;;
41903;SDS011;27586;51.124;4.182;2023-03-19T02:36:59;6.88;;;6.25;;
41903;SDS011;27586;51.124;4.182;2023-03-19T02:39:35;6.75;;;5.95;;
41903;SDS011;27586;51.124;4.182;2023-03-19T02:42:07;6.80;;;5.60;;
41903;SDS011;27586;51.124;4.182;2023-03-19T02:44:35;7.93;;;6.18;;
41903;SDS011;27586;51.124;4.182;2023-03-19T02:47:01;6.70;;;5.68;;
41903;SDS011;27586;51.124;4.182;2023-03-19T02:49:28;7.25;;;6.13;;
41903;SDS011;27586;51.124;4.182;2023-03-19T02:51:53;6.35;;;5.65;;
41903;SDS011;27586;51.124;4.182;2023-03-19T02:54:19;6.65;;;5.78;;
41903;SDS011;27586;51.124;4.182;2023-03-19T02:56:45;6.95;;;6.25;;
41903;SDS011;27586;51.124;4.182;2023-03-19T02:59:11;6.53;;;5.93;;
41903;SDS011;27586;51.124;4.182;2023-03-19T03:01:37;7.30;;;6.03;;
41903;SDS011;27586;51.124;4.182;2023-03-19T03:04:03;7.07;;;5.82;;
41903;SDS011;27586;51.124;4.182;2023-03-19T03:06:29;9.00;;;6.45;;
41903;SDS011;27586;51.124;4.182;2023-03-19T03:08:55;7.53;;;6.18;;
41903;SDS011;27586;51.124;4.182;2023-03-19T03:11:20;7.53;;;6.03;;
41903;SDS011;27586;51.124;4.182;2023-03-19T03:13:46;8.23;;;5.68;;
41903;SDS011;27586;51.124;4.182;2023-03-19T03:16:12;6.30;;;5.63;;
41903;SDS011;27586;51.124;4.182;2023-03-19T03:18:38;6.40;;;5.15;;
41903;SDS011;27586;51.124;4.182;2023-03-19T03:21:03;7.13;;;5.30;;
41903;SDS011;27586;51.124;4.182;2023-03-19T03:23:29;6.75;;;5.28;;
41903;SDS011;27586;51.124;4.182;2023-03-19T03:25:55;8.55;;;5.47;;
41903;SDS011;27586;51.124;4.182;2023-03-19T03:28:20;7.78;;;4.80;;
41903;SDS011;27586;51.124;4.182;2023-03-19T03:30:46;5.32;;;4.82;;
41903;SDS011;27586;51.124;4.182;2023-03-19T03:33:13;5.60;;;4.78;;
41903;SDS011;27586;51.124;4.182;2023-03-19T03:35:39;6.72;;;6.10;;
41903;SDS011;27586;51.124;4.182;2023-03-19T03:38:05;6.30;;;5.43;;
41903;SDS011;27586;51.124;4.182;2023-03-19T03:40:31;7.60;;;5.30;;
41903;SDS011;27586;51.124;4.182;2023-03-19T03:42:58;6.55;;;5.43;;
41903;SDS011;27586;51.124;4.182;2023-03-19T03:45:23;7.75;;;6.20;;
41903;SDS011;27586;51.124;4.182;2023-03-19T03:47:49;8.82;;;5.78;;
41903;SDS011;27586;51.124;4.182;2023-03-19T03:50:15;6.90;;;5.82;;
41903;SDS011;27586;51.124;4.182;2023-03-19T03:52:41;8.77;;;6.20;;
41903;SDS011;27586;51.124;4.182;2023-03-19T03:55:07;8.60;;;6.05;;
41903;SDS011;27586;51.124;4.182;2023-03-19T03:57:33;7.43;;;5.97;;
41903;SDS011;27586;51.124;4.182;2023-03-19T03:59:59;7.00;;;5.70;;
41903;SDS011;27586;51.124;4.182;2023-03-19T04:02:25;8.35;;;6.22;;
41903;SDS011;27586;51.124;4.182;2023-03-19T04:04:52;7.20;;;5.93;;
41903;SDS011;27586;51.124;4.182;2023-03-19T04:07:18;6.20;;;5.60;;
41903;SDS011;27586;51.124;4.182;2023-03-19T04:09:44;7.68;;;5.50;;
41903;SDS011;27586;51.124;4.182;2023-03-19T04:12:10;8.48;;;6.15;;
41903;SDS011;27586;51.124;4.182;2023-03-19T04:14:37;7.85;;;5.55;;
41903;SDS011;27586;51.124;4.182;2023-03-19T04:17:02;8.02;;;5.50;;
41903;SDS011;27586;51.124;4.182;2023-03-19T04:19:29;6.47;;;5.38;;
41903;SDS011;27586;51.124;4.182;2023-03-19T04:21:55;6.25;;;5.18;;
41903;SDS011;27586;51.124;4.182;2023-03-19T04:24:21;7.68;;;5.50;;
41903;SDS011;27586;51.124;4.182;2023-03-19T04:26:47;8.00;;;5.13;;
41903;SDS011;27586;51.124;4.182;2023-03-19T04:29:14;5.38;;;4.75;;
41903;SDS011;27586;51.124;4.182;2023-03-19T04:31:40;8.40;;;5.47;;
41903;SDS011;27586;51.124;4.182;2023-03-19T04:34:06;8.40;;;4.90;;
41903;SDS011;27586;51.124;4.182;2023-03-19T04:36:32;9.90;;;5.60;;
41903;SDS011;27586;51.124;4.182;2023-03-19T04:38:57;7.03;;;5.00;;
41903;SDS011;27586;51.124;4.182;2023-03-19T04:41:23;9.82;;;5.38;;
41903;SDS011;27586;51.124;4.182;2023-03-19T04:43:49;7.28;;;5.05;;
41903;SDS011;27586;51.124;4.182;2023-03-19T04:46:15;8.20;;;5.10;;
41903;SDS011;27586;51.124;4.182;2023-03-19T04:48:41;8.45;;;5.20;;
41903;SDS011;27586;51.124;4.182;2023-03-19T04:51:07;5.63;;;4.72;;
41903;SDS011;27586;51.124;4.182;2023-03-19T04:53:34;7.55;;;4.95;;
41903;SDS011;27586;51.124;4.182;2023-03-19T04:56:00;7.78;;;5.05;;
41903;SDS011;27586;51.124;4.182;2023-03-19T04:58:26;9.32;;;4.72;;
41903;SDS011;27586;51.124;4.182;2023-03-19T05:00:52;8.30;;;4.88;;
41903;SDS011;27586;51.124;4.182;2023-03-19T05:03:18;7.28;;;4.55;;
41903;SDS011;27586;51.124;4.182;2023-03-19T05:05:44;7.07;;;4.97;;
41903;SDS011;27586;51.124;4.182;2023-03-19T05:08:09;8.48;;;4.43;;
41903;SDS011;27586;51.124;4.182;2023-03-19T05:10:36;9.05;;;4.65;;
41903;SDS011;27586;51.124;4.182;2023-03-19T05:13:02;8.00;;;4.38;;
41903;SDS011;27586;51.124;4.182;2023-03-19T05:15:28;9.48;;;4.70;;
41903;SDS011;27586;51.124;4.182;2023-03-19T05:17:53;9.27;;;4.60;;
41903;SDS011;27586;51.124;4.182;2023-03-19T05:20:19;8.85;;;4.15;;
41903;SDS011;27586;51.124;4.182;2023-03-19T05:22:45;10.35;;;4.43;;
41903;SDS011;27586;51.124;4.182;2023-03-19T05:25:11;7.43;;;4.07;;
41903;SDS011;27586;51.124;4.182;2023-03-19T05:27:37;8.38;;;3.80;;
41903;SDS011;27586;51.124;4.182;2023-03-19T05:30:04;7.63;;;4.10;;
41903;SDS011;27586;51.124;4.182;2023-03-19T05:32:30;9.90;;;4.35;;
41903;SDS011;27586;51.124;4.182;2023-03-19T05:34:56;14.30;;;4.25;;
41903;SDS011;27586;51.124;4.182;2023-03-19T05:37:22;8.27;;;4.05;;
41903;SDS011;27586;51.124;4.182;2023-03-19T05:39:49;6.95;;;3.80;;
41903;SDS011;27586;51.124;4.182;2023-03-19T05:42:15;8.77;;;3.95;;
41903;SDS011;27586;51.124;4.182;2023-03-19T05:44:41;7.72;;;4.22;;
41903;SDS011;27586;51.124;4.182;2023-03-19T05:47:07;8.18;;;3.88;;
41903;SDS011;27586;51.124;4.182;2023-03-19T05:49:34;8.38;;;4.28;;
41903;SDS011;27586;51.124;4.182;2023-03-19T05:52:00;8.35;;;3.72;;
41903;SDS011;27586;51.124;4.182;2023-03-19T05:54:25;11.00;;;4.05;;
41903;SDS011;27586;51.124;4.182;2023-03-19T05:56:51;9.73;;;3.70;;
41903;SDS011;27586;51.124;4.182;2023-03-19T05:59:16;7.93;;;3.55;;
41903;SDS011;27586;51.124;4.182;2023-03-19T06:01:42;7.13;;;4.00;;
41903;SDS011;27586;51.124;4.182;2023-03-19T06:04:08;11.20;;;4.38;;
41903;SDS011;27586;51.124;4.182;2023-03-19T06:06:33;9.55;;;4.38;;
41903;SDS011;27586;51.124;4.182;2023-03-19T06:08:59;8.43;;;4.20;;
41903;SDS011;27586;51.124;4.182;2023-03-19T06:11:25;7.80;;;4.25;;
41903;SDS011;27586;51.124;4.182;2023-03-19T06:13:54;9.40;;;5.13;;
41903;SDS011;27586;51.124;4.182;2023-03-19T06:16:19;7.63;;;4.35;;
41903;SDS011;27586;51.124;4.182;2023-03-19T06:18:45;8.20;;;4.25;;
41903;SDS011;27586;51.124;4.182;2023-03-19T06:21:11;10.00;;;5.00;;
41903;SDS011;27586;51.124;4.182;2023-03-19T06:23:37;8.43;;;4.78;;
41903;SDS011;27586;51.124;4.182;2023-03-19T06:26:02;11.43;;;5.65;;
41903;SDS011;27586;51.124;4.182;2023-03-19T06:28:29;9.80;;;4.80;;
41903;SDS011;27586;51.124;4.182;2023-03-19T06:30:55;10.15;;;5.30;;
41903;SDS011;27586;51.124;4.182;2023-03-19T06:33:21;9.18;;;4.95;;
41903;SDS011;27586;51.124;4.182;2023-03-19T06:35:49;10.25;;;5.22;;
41903;SDS011;27586;51.124;4.182;2023-03-19T06:38:15;8.60;;;5.18;;
41903;SDS011;27586;51.124;4.182;2023-03-19T06:40:41;10.90;;;4.93;;
41903;SDS011;27586;51.124;4.182;2023-03-19T06:43:06;9.10;;;5.10;;
41903;SDS011;27586;51.124;4.182;2023-03-19T06:45:32;9.45;;;5.35;;
41903;SDS011;27586;51.124;4.182;2023-03-19T06:47:58;9.73;;;5.60;;
41903;SDS011;27586;51.124;4.182;2023-03-19T06:50:24;10.70;;;6.18;;
41903;SDS011;27586;51.124;4.182;2023-03-19T06:52:50;11.57;;;6.13;;
41903;SDS011;27586;51.124;4.182;2023-03-19T06:55:16;12.70;;;6.47;;
41903;SDS011;27586;51.124;4.182;2023-03-19T06:57:42;10.23;;;6.18;;
41903;SDS011;27586;51.124;4.182;2023-03-19T07:00:08;13.20;;;6.75;;
41903;SDS011;27586;51.124;4.182;2023-03-19T07:02:35;12.38;;;6.50;;
41903;SDS011;27586;51.124;4.182;2023-03-19T07:05:01;12.52;;;7.00;;
41903;SDS011;27586;51.124;4.182;2023-03-19T07:07:27;14.45;;;6.82;;
41903;SDS011;27586;51.124;4.182;2023-03-19T07:09:52;10.82;;;6.05;;
41903;SDS011;27586;51.124;4.182;2023-03-19T07:12:18;14.25;;;6.32;;
41903;SDS011;27586;51.124;4.182;2023-03-19T07:14:44;8.25;;;5.43;;
41903;SDS011;27586;51.124;4.182;2023-03-19T07:17:10;10.18;;;5.40;;
41903;SDS011;27586;51.124;4.182;2023-03-19T07:19:35;13.45;;;6.10;;
41903;SDS011;27586;51.124;4.182;2023-03-19T07:22:01;12.95;;;5.25;;
41903;SDS011;27586;51.124;4.182;2023-03-19T07:24:27;12.43;;;5.78;;
41903;SDS011;27586;51.124;4.182;2023-03-19T07:26:53;8.13;;;5.05;;
41903;SDS011;27586;51.124;4.182;2023-03-19T07:29:19;12.13;;;5.03;;
41903;SDS011;27586;51.124;4.182;2023-03-19T07:31:45;9.93;;;4.47;;
41903;SDS011;27586;51.124;4.182;2023-03-19T07:34:11;8.35;;;4.85;;
41903;SDS011;27586;51.124;4.182;2023-03-19T07:36:36;8.98;;;4.47;;
41903;SDS011;27586;51.124;4.182;2023-03-19T07:39:02;8.50;;;4.95;;
41903;SDS011;27586;51.124;4.182;2023-03-19T07:41:28;9.65;;;5.20;;
41903;SDS011;27586;51.124;4.182;2023-03-19T07:43:53;9.85;;;5.10;;
41903;SDS011;27586;51.124;4.182;2023-03-19T07:46:19;10.05;;;4.80;;
41903;SDS011;27586;51.124;4.182;2023-03-19T07:48:45;9.02;;;5.03;;
41903;SDS011;27586;51.124;4.182;2023-03-19T07:51:11;7.93;;;4.60;;
41903;SDS011;27586;51.124;4.182;2023-03-19T07:53:36;7.82;;;4.90;;
41903;SDS011;27586;51.124;4.182;2023-03-19T07:56:02;11.30;;;5.18;;
41903;SDS011;27586;51.124;4.182;2023-03-19T07:58:28;9.52;;;5.25;;
41903;SDS011;27586;51.124;4.182;2023-03-19T08:00:53;12.35;;;5.35;;
41903;SDS011;27586;51.124;4.182;2023-03-19T08:03:19;12.38;;;5.45;;
41903;SDS011;27586;51.124;4.182;2023-03-19T08:05:48;11.68;;;5.07;;
41903;SDS011;27586;51.124;4.182;2023-03-19T08:08:14;11.00;;;5.80;;
41903;SDS011;27586;51.124;4.182;2023-03-19T08:10:40;10.60;;;5.05;;
41903;SDS011;27586;51.124;4.182;2023-03-19T08:13:05;9.93;;;5.10;;
41903;SDS011;27586;51.124;4.182;2023-03-19T08:15:31;13.57;;;5.80;;
41903;SDS011;27586;51.124;4.182;2023-03-19T08:17:58;10.77;;;5.97;;
41903;SDS011;27586;51.124;4.182;2023-03-19T08:20:28;9.20;;;5.03;;
41903;SDS011;27586;51.124;4.182;2023-03-19T08:22:55;9.80;;;5.55;;
41903;SDS011;27586;51.124;4.182;2023-03-19T08:25:21;10.50;;;5.75;;
41903;SDS011;27586;51.124;4.182;2023-03-19T08:27:48;8.27;;;5.43;;
41903;SDS011;27586;51.124;4.182;2023-03-19T08:30:14;6.72;;;5.28;;
41903;SDS011;27586;51.124;4.182;2023-03-19T08:32:40;10.77;;;5.90;;
41903;SDS011;27586;51.124;4.182;2023-03-19T08:35:06;11.00;;;5.97;;
41903;SDS011;27586;51.124;4.182;2023-03-19T08:37:32;9.10;;;5.78;;
41903;SDS011;27586;51.124;4.182;2023-03-19T08:39:58;9.23;;;4.97;;
41903;SDS011;27586;51.124;4.182;2023-03-19T08:42:23;7.25;;;5.82;;
41903;SDS011;27586;51.124;4.182;2023-03-19T08:44:49;11.45;;;5.70;;
41903;SDS011;27586;51.124;4.182;2023-03-19T08:47:15;10.55;;;5.90;;
41903;SDS011;27586;51.124;4.182;2023-03-19T08:49:40;11.45;;;6.30;;
41903;SDS011;27586;51.124;4.182;2023-03-19T08:52:06;10.00;;;6.03;;
41903;SDS011;27586;51.124;4.182;2023-03-19T08:54:32;10.30;;;5.80;;
41903;SDS011;27586;51.124;4.182;2023-03-19T08:56:58;10.68;;;5.80;;
41903;SDS011;27586;51.124;4.182;2023-03-19T08:59:25;9.95;;;6.43;;
41903;SDS011;27586;51.124;4.182;2023-03-19T09:01:51;11.25;;;6.15;;
41903;SDS011;27586;51.124;4.182;2023-03-19T09:04:18;9.68;;;6.22;;
41903;SDS011;27586;51.124;4.182;2023-03-19T09:06:45;10.30;;;6.28;;
41903;SDS011;27586;51.124;4.182;2023-03-19T09:09:10;9.07;;;6.00;;
41903;SDS011;27586;51.124;4.182;2023-03-19T09:11:36;8.63;;;6.03;;
41903;SDS011;27586;51.124;4.182;2023-03-19T09:14:02;9.27;;;6.00;;
41903;SDS011;27586;51.124;4.182;2023-03-19T09:16:27;12.40;;;6.30;;
41903;SDS011;27586;51.124;4.182;2023-03-19T09:18:54;11.43;;;7.35;;
41903;SDS011;27586;51.124;4.182;2023-03-19T09:21:20;9.93;;;6.78;;
41903;SDS011;27586;51.124;4.182;2023-03-19T09:23:45;9.85;;;6.63;;
41903;SDS011;27586;51.124;4.182;2023-03-19T09:26:11;12.15;;;7.88;;
41903;SDS011;27586;51.124;4.182;2023-03-19T09:28:37;10.27;;;7.85;;
41903;SDS011;27586;51.124;4.182;2023-03-19T09:31:02;10.90;;;8.18;;
41903;SDS011;27586;51.124;4.182;2023-03-19T09:33:31;12.80;;;8.55;;
41903;SDS011;27586;51.124;4.182;2023-03-19T09:35:57;15.13;;;10.20;;
41903;SDS011;27586;51.124;4.182;2023-03-19T09:38:23;14.57;;;10.68;;
41903;SDS011;27586;51.124;4.182;2023-03-19T09:43:59;12.57;;;10.77;;
41903;SDS011;27586;51.124;4.182;2023-03-19T09:46:42;16.02;;;12.07;;
41903;SDS011;27586;51.124;4.182;2023-03-19T09:49:33;16.77;;;12.18;;
41903;SDS011;27586;51.124;4.182;2023-03-19T09:52:24;16.33;;;12.60;;
41903;SDS011;27586;51.124;4.182;2023-03-19T09:54:55;18.15;;;13.38;;
41903;SDS011;27586;51.124;4.182;2023-03-19T09:57:24;18.50;;;12.82;;
41903;SDS011;27586;51.124;4.182;2023-03-19T09:59:53;15.27;;;12.95;;
41903;SDS011;27586;51.124;4.182;2023-03-19T10:02:39;16.73;;;13.10;;
41903;SDS011;27586;51.124;4.182;2023-03-19T10:11:21;23.35;;;16.75;;
41903;SDS011;27586;51.124;4.182;2023-03-19T10:17:09;21.77;;;16.05;;
41903;SDS011;27586;51.124;4.182;2023-03-19T10:19:52;22.67;;;16.15;;
41903;SDS011;27586;51.124;4.182;2023-03-19T10:22:28;25.17;;;16.67;;
41903;SDS011;27586;51.124;4.182;2023-03-19T10:24:59;21.83;;;16.20;;
41903;SDS011;27586;51.124;4.182;2023-03-19T10:27:27;22.38;;;16.33;;
41903;SDS011;27586;51.124;4.182;2023-03-19T10:29:53;21.02;;;14.85;;
41903;SDS011;27586;51.124;4.182;2023-03-19T10:34:58;21.58;;;15.27;;
41903;SDS011;27586;51.124;4.182;2023-03-19T10:37:29;23.75;;;16.10;;
41903;SDS011;27586;51.124;4.182;2023-03-19T10:39:55;23.65;;;15.93;;
41903;SDS011;27586;51.124;4.182;2023-03-19T10:42:38;23.42;;;14.93;;
41903;SDS011;27586;51.124;4.182;2023-03-19T10:47:51;17.83;;;13.98;;
41903;SDS011;27586;51.124;4.182;2023-03-19T10:50:21;18.77;;;14.45;;
41903;SDS011;27586;51.124;4.182;2023-03-19T10:55:30;22.00;;;15.95;;
41903;SDS011;27586;51.124;4.182;2023-03-19T10:58:04;21.48;;;15.48;;
41903;SDS011;27586;51.124;4.182;2023-03-19T11:00:40;22.50;;;16.02;;
41903;SDS011;27586;51.124;4.182;2023-03-19T11:03:31;18.45;;;15.07;;
41903;SDS011;27586;51.124;4.182;2023-03-19T11:06:06;21.60;;;16.77;;
41903;SDS011;27586;51.124;4.182;2023-03-19T11:08:47;20.95;;;16.38;;
41903;SDS011;27586;51.124;4.182;2023-03-19T11:11:24;20.83;;;16.45;;
41903;SDS011;27586;51.124;4.182;2023-03-19T11:13:56;22.95;;;16.40;;
41903;SDS011;27586;51.124;4.182;2023-03-19T11:16:22;22.35;;;16.23;;
41903;SDS011;27586;51.124;4.182;2023-03-19T11:18:48;20.27;;;15.80;;
41903;SDS011;27586;51.124;4.182;2023-03-19T11:21:21;23.13;;;16.10;;
41903;SDS011;27586;51.124;4.182;2023-03-19T11:24:00;22.25;;;16.40;;
41903;SDS011;27586;51.124;4.182;2023-03-19T11:26:28;23.50;;;17.63;;
41903;SDS011;27586;51.124;4.182;2023-03-19T11:28:57;22.48;;;16.42;;
41903;SDS011;27586;51.124;4.182;2023-03-19T11:31:30;22.30;;;16.90;;
41903;SDS011;27586;51.124;4.182;2023-03-19T11:37:22;22.25;;;15.45;;
41903;SDS011;27586;51.124;4.182;2023-03-19T11:42:43;21.92;;;15.60;;
41903;SDS011;27586;51.124;4.182;2023-03-19T11:48:24;22.25;;;14.55;;
41903;SDS011;27586;51.124;4.182;2023-03-19T11:50:59;20.13;;;14.68;;
41903;SDS011;27586;51.124;4.182;2023-03-19T11:53:48;26.90;;;16.10;;
41903;SDS011;27586;51.124;4.182;2023-03-19T11:59:08;16.63;;;13.77;;
41903;SDS011;27586;51.124;4.182;2023-03-19T12:23:47;13.93;;;10.48;;
41903;SDS011;27586;51.124;4.182;2023-03-19T12:29:38;13.23;;;10.70;;
41903;SDS011;27586;51.124;4.182;2023-03-19T12:35:04;15.35;;;10.55;;
41903;SDS011;27586;51.124;4.182;2023-03-19T12:37:58;13.35;;;11.45;;
41903;SDS011;27586;51.124;4.182;2023-03-19T12:41:06;11.07;;;9.80;;
41903;SDS011;27586;51.124;4.182;2023-03-19T12:43:41;14.88;;;10.15;;
41903;SDS011;27586;51.124;4.182;2023-03-19T12:46:17;14.38;;;10.48;;
41903;SDS011;27586;51.124;4.182;2023-03-19T12:48:50;12.35;;;10.25;;
41903;SDS011;27586;51.124;4.182;2023-03-19T12:51:22;13.98;;;10.52;;
41903;SDS011;27586;51.124;4.182;2023-03-19T12:59:23;13.98;;;8.85;;
41903;SDS011;27586;51.124;4.182;2023-03-19T13:01:50;9.35;;;8.35;;
41903;SDS011;27586;51.124;4.182;2023-03-19T13:04:24;9.48;;;8.25;;
41903;SDS011;27586;51.124;4.182;2023-03-19T13:07:01;10.85;;;8.73;;
41903;SDS011;27586;51.124;4.182;2023-03-19T13:09:37;9.60;;;8.43;;
41903;SDS011;27586;51.124;4.182;2023-03-19T13:12:19;9.98;;;8.32;;
41903;SDS011;27586;51.124;4.182;2023-03-19T13:20:21;10.55;;;8.82;;
41903;SDS011;27586;51.124;4.182;2023-03-19T13:23:10;9.77;;;7.60;;
41903;SDS011;27586;51.124;4.182;2023-03-19T13:25:41;9.00;;;6.78;;
41903;SDS011;27586;51.124;4.182;2023-03-19T13:28:17;7.90;;;6.95;;
41903;SDS011;27586;51.124;4.182;2023-03-19T13:31:06;8.35;;;6.45;;
41903;SDS011;27586;51.124;4.182;2023-03-19T13:33:48;13.52;;;6.82;;
41903;SDS011;27586;51.124;4.182;2023-03-19T13:36:30;7.55;;;6.07;;
41903;SDS011;27586;51.124;4.182;2023-03-19T13:39:02;14.02;;;6.88;;
41903;SDS011;27586;51.124;4.182;2023-03-19T13:43:57;10.50;;;9.30;;
41903;SDS011;27586;51.124;4.182;2023-03-19T13:46:25;15.68;;;10.05;;
41903;SDS011;27586;51.124;4.182;2023-03-19T13:48:55;12.40;;;9.02;;
41903;SDS011;27586;51.124;4.182;2023-03-19T13:51:33;8.75;;;7.85;;
41903;SDS011;27586;51.124;4.182;2023-03-19T13:57:01;8.07;;;7.22;;
41903;SDS011;27586;51.124;4.182;2023-03-19T14:02:45;7.13;;;5.32;;
41903;SDS011;27586;51.124;4.182;2023-03-19T14:04:50;7.05;;;6.20;;
41903;SDS011;27586;51.124;4.182;2023-03-19T14:07:28;8.68;;;7.85;;
41903;SDS011;27586;51.124;4.182;2023-03-19T14:12:37;6.95;;;5.90;;
41903;SDS011;27586;51.124;4.182;2023-03-19T14:25:27;4.75;;;4.07;;
41903;SDS011;27586;51.124;4.182;2023-03-19T14:28:15;4.45;;;4.05;;
41903;SDS011;27586;51.124;4.182;2023-03-19T14:30:44;4.80;;;3.92;;
41903;SDS011;27586;51.124;4.182;2023-03-19T14:33:17;6.25;;;3.95;;
41903;SDS011;27586;51.124;4.182;2023-03-19T14:35:49;7.40;;;5.47;;
41903;SDS011;27586;51.124;4.182;2023-03-19T14:38:23;7.03;;;4.05;;
41903;SDS011;27586;51.124;4.182;2023-03-19T14:41:01;5.65;;;3.67;;
41903;SDS011;27586;51.124;4.182;2023-03-19T14:46:30;4.13;;;3.40;;
41903;SDS011;27586;51.124;4.182;2023-03-19T14:52:10;3.30;;;2.97;;
41903;SDS011;27586;51.124;4.182;2023-03-19T14:54:58;4.53;;;3.05;;
41903;SDS011;27586;51.124;4.182;2023-03-19T14:57:25;6.00;;;3.85;;
41903;SDS011;27586;51.124;4.182;2023-03-19T14:59:58;5.13;;;3.20;;
41903;SDS011;27586;51.124;4.182;2023-03-19T15:05:05;3.20;;;2.88;;
41903;SDS011;27586;51.124;4.182;2023-03-19T15:07:37;5.55;;;3.10;;
41903;SDS011;27586;51.124;4.182;2023-03-19T15:10:11;4.38;;;3.25;;
41903;SDS011;27586;51.124;4.182;2023-03-19T15:17:46;6.25;;;3.88;;
41903;SDS011;27586;51.124;4.182;2023-03-19T15:20:21;8.63;;;4.55;;
41903;SDS011;27586;51.124;4.182;2023-03-19T15:22:54;8.57;;;5.28;;
41903;SDS011;27586;51.124;4.182;2023-03-19T15:25:23;10.90;;;5.32;;
41903;SDS011;27586;51.124;4.182;2023-03-19T15:28:09;8.98;;;5.30;;
41903;SDS011;27586;51.124;4.182;2023-03-19T15:30:41;11.13;;;5.68;;
41903;SDS011;27586;51.124;4.182;2023-03-19T15:33:23;9.82;;;5.18;;
41903;SDS011;27586;51.124;4.182;2023-03-19T15:36:40;9.00;;;5.30;;
41903;SDS011;27586;51.124;4.182;2023-03-19T15:38:45;9.55;;;5.55;;
41903;SDS011;27586;51.124;4.182;2023-03-19T15:41:19;9.73;;;6.03;;
41903;SDS011;27586;51.124;4.182;2023-03-19T15:43:48;8.63;;;5.30;;
41903;SDS011;27586;51.124;4.182;2023-03-19T15:46:14;11.30;;;6.15;;
41903;SDS011;27586;51.124;4.182;2023-03-19T15:48:49;11.48;;;5.65;;
41903;SDS011;27586;51.124;4.182;2023-03-19T15:51:19;11.05;;;6.28;;
41903;SDS011;27586;51.124;4.182;2023-03-19T15:53:47;9.15;;;5.30;;
41903;SDS011;27586;51.124;4.182;2023-03-19T15:56:16;9.35;;;5.18;;
41903;SDS011;27586;51.124;4.182;2023-03-19T15:58:44;9.10;;;4.80;;
41903;SDS011;27586;51.124;4.182;2023-03-19T16:01:12;6.47;;;4.85;;
41903;SDS011;27586;51.124;4.182;2023-03-19T16:03:43;10.48;;;5.40;;
41903;SDS011;27586;51.124;4.182;2023-03-19T16:06:22;13.30;;;6.43;;
41903;SDS011;27586;51.124;4.182;2023-03-19T16:08:50;10.20;;;6.88;;
41903;SDS011;27586;51.124;4.182;2023-03-19T16:11:28;11.43;;;5.93;;
41903;SDS011;27586;51.124;4.182;2023-03-19T16:14:20;8.75;;;5.90;;
41903;SDS011;27586;51.124;4.182;2023-03-19T16:16:47;10.68;;;6.32;;
41903;SDS011;27586;51.124;4.182;2023-03-19T16:21:50;6.68;;;3.70;;
41903;SDS011;27586;51.124;4.182;2023-03-19T16:26:58;8.13;;;3.97;;
41903;SDS011;27586;51.124;4.182;2023-03-19T16:29:38;7.88;;;3.90;;
41903;SDS011;27586;51.124;4.182;2023-03-19T16:32:21;7.13;;;4.50;;
41903;SDS011;27586;51.124;4.182;2023-03-19T16:34:50;11.18;;;5.03;;
41903;SDS011;27586;51.124;4.182;2023-03-19T16:37:39;6.68;;;4.68;;
41903;SDS011;27586;51.124;4.182;2023-03-19T16:45:17;6.80;;;4.28;;
41903;SDS011;27586;51.124;4.182;2023-03-19T16:47:47;4.93;;;3.58;;
41903;SDS011;27586;51.124;4.182;2023-03-19T16:50:18;5.38;;;3.50;;
41903;SDS011;27586;51.124;4.182;2023-03-19T16:52:45;6.43;;;3.78;;
41903;SDS011;27586;51.124;4.182;2023-03-19T16:55:17;5.38;;;3.60;;